Airfield :
LOGIN :

Register | Disclaimer

   EN    FR    IT 

 










Legend :    VFR   Marginal VFR   IFR   Intensive IFR   Very Intensive IFR
Visi :
Ceiling :
>= 8 km
>= 3000ft
5 to 8 km
1000 to 3000 ft
1500m to 5 km
500 to 1000 ft
800 to 1500m
200 to 500 ft
< 800m
< 200 ft
Symbols :   Thunderstorms  Fog  Heavy snow  Heavy precipitations  Wind > 20 kt
SIGMETs :     Misc.  Thunderstorms  Icing  Turbulence  Mountain Waves  Volcanic Ashes






- Airport Elevation : 1682 ft
- IATA code : VIT


LEVT - Vitoria Gasteiz

CURRENT METAR :
  • 090900Z 20007KT 160V240 9999 SCT035 BKN050 06/04 Q1028

EXPIRED METARs :
  • 090830Z 21011KT 9999 SCT035 BKN050 05/03 Q1027
  • 090800Z 20008KT 160V230 9999 SCT030 BKN050 05/05 Q1027
  • 090730Z 24004KT 170V340 9999 SCT025 BKN050 03/03 Q1027
  • 090700Z 21002KT 9999 FEW005 BKN040 02/02 Q1027

TAF TAF LEVT
Valid from the 09 at 06:00 until the 10 at 06:00 UTC


090500Z 0906/1006 29008KT 9999 FEW010 BKN020 TX10/0912Z TN02/1006Z
PROB40
TEMPO 0906/0918 3000 -RADZ BR BKN010
PROB40
TEMPO 0906/0912 1500 -RADZ BCFG BKN005
PROB40
TEMPO 0909/0915 29015G25KT
PROB30
TEMPO 0909/0915 29015G30KT



MET'MAP, your aeronautical weather chart ! - Copyright ORBIFLY December 2007 - Disclaimer

ORBIFLY MET'MAP TEAM :

Programming & Development : Alexandra Zaïnal
Concept & original design : Baudouin d'Aumeries
Assistance for programming : Marc-Olivier Méhu
Technical & hardware support : Manuel Goepfert

Contact : metmap@orbifly.com




SOURCES & CREDITS :

   NOAA